Back to Top

My Weather Underground Personal Weather Station Historical Data with Graphs...

Delerius Weather Station Historical Data
 
Daily Summary for July 05, 2020 Units:  English    Metric   Both
Daily Weekly Monthly Yearly
  Current: High: Low: Average:
Temperature: 55.4 °F 65.1 °F 54.9 °F 59.2 °F
Dew Point: 49.6 °F 51.3 °F 47.8 °F 49.3 °F
Humidity: 81% 81% 54.5% 70%
Wind Speed: 13.5mph 26.1mph 8.1mph 16mph
Wind Gust: 23mph 37mph - -
WindWSW - - WSW
Pressure: 29.8 in 29.8 in 29.7 in -
Precipitation: 0 in      
 
 
Tabular Data for July 05, 2020
Time Temperature Dew Point Pressure Wind Wind Speed Wind Gust Humidity Rainfall Rate (Hourly) solar
14:54 63.7 °F 48.2 °F 29.7 in WSW 14.3 mph 20 mph 57.1% 0 in 325 W/m2
14:59 63.1 °F 49.3 °F 29.7 in WSW 14.4 mph 23 mph 60.6% 0 in 401 W/m2
15:04 63 °F 49.1 °F 29.7 in WSW 14.5 mph 23 mph 60.3% 0 in 262 W/m2
15:09 62.8 °F 48.9 °F 29.7 in WSW 13.6 mph 24 mph 60.6% 0 in 1039 W/m2
15:14 63.9 °F 49.1 °F 29.7 in WSW 14.9 mph 29 mph 58.7% 0 in 912 W/m2
15:19 64 °F 49.1 °F 29.7 in WSW 15 mph 29 mph 57.9% 0 in 956 W/m2
15:24 64.4 °F 49.3 °F 29.7 in WSW 14 mph 25 mph 57.9% 0 in 956 W/m2
15:29 64.9 °F 48.4 °F 29.7 in WSW 17.1 mph 31 mph 55.2% 0 in 947 W/m2
15:34 64.8 °F 48 °F 29.7 in WSW 15.5 mph 31 mph 54.5% 0 in 930 W/m2
15:39 64 °F 48.6 °F 29.7 in WSW 14.4 mph 25 mph 56.9% 0 in 292 W/m2
15:44 63.9 °F 49.3 °F 29.7 in WSW 16.4 mph 26 mph 58.8% 0 in 1069 W/m2
15:49 65.1 °F 50.2 °F 29.7 in WSW 16.7 mph 28 mph 58.5% 0 in 953 W/m2
15:54 64.4 °F 49.1 °F 29.7 in SW 17.5 mph 29 mph 57.4% 0 in 255 W/m2
15:59 63.1 °F 48.7 °F 29.7 in WSW 18.3 mph 31 mph 59.1% 0 in 223 W/m2
16:04 62.1 °F 48.7 °F 29.7 in WSW 23.1 mph 35 mph 61.8% 0 in 287 W/m2
16:09 61 °F 49.5 °F 29.7 in WSW 19.8 mph 33 mph 65.5% 0 in 360 W/m2
16:14 60.8 °F 49.3 °F 29.7 in WSW 15.8 mph 30 mph 65.7% 0 in 360 W/m2
16:19 61.7 °F 49.5 °F 29.7 in WSW 16.2 mph 30 mph 64% 0 in 988 W/m2
16:24 62.8 °F 50 °F 29.7 in WSW 16.6 mph 29 mph 63.4% 0 in 988 W/m2
16:29 63 °F 50 °F 29.7 in WSW 15.2 mph 25 mph 62.5% 0 in 951 W/m2
16:34 62.4 °F 50 °F 29.7 in WSW 16.8 mph 26 mph 63.5% 0 in 367 W/m2
16:39 62.8 °F 50.5 °F 29.7 in WSW 16.8 mph 28 mph 64.3% 0 in 789 W/m2
16:44 62.4 °F 50 °F 29.7 in WSW 17.6 mph 28 mph 63.8% 0 in 789 W/m2
16:49 62.6 °F 49.1 °F 29.7 in WSW 22.2 mph 32 mph 61.1% 0 in 803 W/m2
16:54 62.6 °F 48.9 °F 29.7 in WSW 24.4 mph 36 mph 60.7% 0 in 803 W/m2
16:59 62.6 °F 48.9 °F 29.7 in WSW 22.6 mph 37 mph 61% 0 in 749 W/m2
17:04 62.8 °F 49.1 °F 29.7 in WSW 21.3 mph 37 mph 60.8% 0 in 687 W/m2
17:09 62.6 °F 48.6 °F 29.7 in WSW 18.7 mph 31 mph 60.1% 0 in 708 W/m2
17:14 62.1 °F 47.8 °F 29.7 in WSW 20.7 mph 36 mph 59.7% 0 in 708 W/m2
17:19 61.3 °F 48.4 °F 29.7 in WSW 17.6 mph 30 mph 62.2% 0 in 257 W/m2
17:24 61.2 °F 48.9 °F 29.7 in WSW 18.4 mph 32 mph 64.1% 0 in 139 W/m2
17:29 60.6 °F 49.3 °F 29.7 in WSW 18.9 mph 32 mph 66.2% 0 in 183 W/m2
17:34 60.3 °F 49.8 °F 29.7 in WSW 19.5 mph 31 mph 68.4% 0 in 197 W/m2
17:39 59 °F 50.4 °F 29.7 in WSW 17.8 mph 31 mph 73% 0 in 271 W/m2
17:44 58.8 °F 50.9 °F 29.7 in WSW 16 mph 27 mph 75% 0 in 318 W/m2
17:49 59.4 °F 51.1 °F 29.7 in WSW 12.7 mph 24 mph 74.3% 0 in 318 W/m2
17:54 59.5 °F 51.1 °F 29.7 in WSW 10.5 mph 20 mph 74% 0 in 113 W/m2
17:59 59 °F 51.1 °F 29.7 in West 10 mph 20 mph 74.7% 0 in 91 W/m2
18:04 58.8 °F 51.3 °F 29.7 in WSW 9.2 mph 19 mph 75.5% 0 in 178 W/m2
18:09 59.5 °F 51.3 °F 29.7 in WSW 13.3 mph 26 mph 74.3% 0 in 285 W/m2
18:14 60.1 °F 50.4 °F 29.7 in WSW 18.1 mph 35 mph 70.2% 0 in 285 W/m2
18:19 59.4 °F 50.5 °F 29.7 in West 16.8 mph 25 mph 72.4% 0 in 176 W/m2
18:24 58.6 °F 50.5 °F 29.7 in West 14.3 mph 20 mph 74.8% 0 in 248 W/m2
18:29 58.5 °F 50.7 °F 29.7 in West 11.8 mph 20 mph 75.3% 0 in 118 W/m2
18:34 58.5 °F 50.9 °F 29.7 in West 9.8 mph 16 mph 76% 0 in 120 W/m2
18:39 58.6 °F 50.9 °F 29.7 in WSW 8.1 mph 23 mph 75.8% 0 in 174 W/m2
18:44 59.2 °F 49.8 °F 29.7 in WSW 14.7 mph 25 mph 71.1% 0 in 160 W/m2
18:49 60.1 °F 49.3 °F 29.7 in WSW 16.7 mph 25 mph 67.8% 0 in 454 W/m2
18:54 60.4 °F 49.5 °F 29.7 in SW 17.6 mph 27 mph 66.8% 0 in 381 W/m2
18:59 60.4 °F 49.3 °F 29.7 in WSW 17.1 mph 29 mph 66.7% 0 in 118 W/m2
19:04 60.3 °F 49.5 °F 29.7 in WSW 18.1 mph 29 mph 67.5% 0 in 146 W/m2
19:09 60.3 °F 49.6 °F 29.7 in WSW 15.7 mph 25 mph 67.8% 0 in 174 W/m2
19:14 60.4 °F 49.8 °F 29.7 in WSW 16 mph 25 mph 68% 0 in 169 W/m2
19:19 60.4 °F 49.3 °F 29.7 in WSW 19 mph 37 mph 66.9% 0 in 97 W/m2
19:24 59.7 °F 48.7 °F 29.7 in WSW 24.9 mph 37 mph 67.1% 0 in 186 W/m2
19:29 59.2 °F 48.6 °F 29.7 in WSW 26.1 mph 37 mph 67.7% 0 in 345 W/m2
19:34 58.8 °F 48.2 °F 29.7 in WSW 20 mph 34 mph 67.8% 0 in 216 W/m2
19:39 58.3 °F 48.2 °F 29.7 in WSW 18.9 mph 33 mph 69.1% 0 in 109 W/m2
19:44 57.7 °F 48.4 °F 29.7 in WSW 11.7 mph 24 mph 71.1% 0 in 53 W/m2
19:49 57.4 °F 48.7 °F 29.7 in WSW 12.7 mph 22 mph 72.9% 0 in 42 W/m2
19:54 57.4 °F 49.1 °F 29.7 in WSW 12.3 mph 33 mph 74% 0 in 104 W/m2
19:59 57 °F 49.1 °F 29.7 in WSW 16.3 mph 33 mph 74.8% 0 in 104 W/m2
20:04 56.5 °F 48.9 °F 29.7 in WSW 12.4 mph 24 mph 75.7% 0 in 139 W/m2
20:09 56.5 °F 49.1 °F 29.7 in WSW 10.9 mph 24 mph 76.2% 0 in 146 W/m2
20:14 56.7 °F 49.5 °F 29.7 in WSW 10.6 mph 23 mph 76.4% 0 in 148 W/m2
20:19 56.8 °F 49.1 °F 29.7 in WSW 13.2 mph 24 mph 75.1% 0 in 60 W/m2
20:24 56.8 °F 49.1 °F 29.7 in WSW 11.2 mph 24 mph 75% 0 in 42 W/m2
20:29 56.8 °F 49.1 °F 29.7 in WSW 8.9 mph 15 mph 75.7% 0 in 40 W/m2
20:34 56.7 °F 49.1 °F 29.7 in WSW 11.1 mph 19 mph 75.9% 0 in 23 W/m2
20:39 56.8 °F 48.9 °F 29.7 in SW 13.8 mph 22 mph 75% 0 in 26 W/m2
20:44 56.8 °F 48.9 °F 29.7 in SW 10.9 mph 19 mph 75% 0 in 23 W/m2
20:49 56.8 °F 48.9 °F 29.7 in SW 14.5 mph 23 mph 74.8% 0 in 12 W/m2
20:54 56.8 °F 48.7 °F 29.7 in SW 15.2 mph 23 mph 74.4% 0 in 9 W/m2
20:59 56.8 °F 48.9 °F 29.7 in SW 15.1 mph 27 mph 75% 0 in 9 W/m2
21:04 56.8 °F 48.9 °F 29.7 in WSW 17 mph 27 mph 75% 0 in 9 W/m2
21:09 56.8 °F 48.9 °F 29.7 in WSW 16.3 mph 25 mph 75% 0 in 7 W/m2
21:14 56.8 °F 48.9 °F 29.7 in WSW 17 mph 27 mph 74.8% 0 in 7 W/m2
21:19 56.8 °F 48.9 °F 29.7 in WSW 17.5 mph 27 mph 75% 0 in 5 W/m2
21:24 56.8 °F 48.9 °F 29.7 in WSW 15 mph 26 mph 75% 0 in 5 W/m2
21:29 56.8 °F 48.9 °F 29.7 in WSW 15.5 mph 34 mph 75% 0 in 5 W/m2
21:34 56.8 °F 48.6 °F 29.7 in WSW 22.4 mph 34 mph 74% 0 in 5 W/m2
21:39 56.7 °F 48.4 °F 29.7 in WSW 22.6 mph 36 mph 74% 0 in 0 W/m2
21:44 56.3 °F 48.2 °F 29.7 in WSW 21.6 mph 36 mph 74.4% 0 in 0 W/m2
21:49 55.9 °F 48.2 °F 29.7 in WSW 18.9 mph 33 mph 75% 0 in 0 W/m2
21:54 55.9 °F 48.4 °F 29.7 in WSW 18.3 mph 27 mph 75.8% 0 in 0 W/m2
21:59 55.8 °F 48.6 °F 29.7 in WSW 17.6 mph 31 mph 76.6% 0 in 0 W/m2
22:04 55.6 °F 48.4 °F 29.7 in WSW 15.8 mph 31 mph 77% 0 in 0 W/m2
22:09 55.2 °F 48.6 °F 29.7 in WSW 15.2 mph 25 mph 77.9% 0 in 0 W/m2
22:14 55 °F 48.6 °F 29.7 in WSW 13.9 mph 24 mph 78.6% 0 in 0 W/m2
22:19 54.9 °F 48.7 °F 29.7 in WSW 12.9 mph 23 mph 79.6% 0 in 0 W/m2
22:24 54.9 °F 48.7 °F 29.7 in WSW 13 mph 23 mph 80% 0 in 0 W/m2
22:29 54.9 °F 48.7 °F 29.7 in WSW 14.7 mph 26 mph 80% 0 in 0 W/m2
22:34 55 °F 48.9 °F 29.7 in WSW 15.3 mph 26 mph 80% 0 in 0 W/m2
22:39 55 °F 49.3 °F 29.7 in WSW 16.1 mph 26 mph 80.6% 0 in 0 W/m2
22:44 55.2 °F 49.3 °F 29.8 in WSW 15.7 mph 26 mph 80% 0 in 0 W/m2
22:49 55.2 °F 49.5 °F 29.8 in WSW 13.4 mph 22 mph 80.7% 0 in 0 W/m2
22:54 55.2 °F 49.5 °F 29.8 in WSW 15.4 mph 25 mph 81% 0 in 0 W/m2
22:59 55.4 °F 49.6 °F 29.8 in WSW 14.4 mph 23 mph 81% 0 in 0 W/m2
23:04 55.4 °F 49.6 °F 29.8 in WSW 13.5 mph 23 mph 81% 0 in 0 W/m2
North Lincolnshire Weather
Compliments of Weather Underground - 2 mb

Data updates at regular intervals.